Time,TemperatureF,DewpointF,PressureIn,WindDirection,WindDirectionDegrees,WindSpeedMPH,WindSpeedGustMPH,Humidity,HourlyPrecipIn,Conditions,Clouds,dailyrainin,SoftwareType,DateUTC
2013-02-03 00:02:00,80.0,80.0,29.70,NE,45,0.0,1.0,99,0.00,,,0.00,,2013-02-02 14:02:00,
2013-02-03 00:11:00,80.0,80.0,29.70,NE,45,0.0,1.0,99,0.00,,,0.00,,2013-02-02 14:11:00,
2013-02-03 00:22:00,79.0,79.0,29.70,NW,314,0.0,1.0,99,0.00,,,0.00,,2013-02-02 14:22:00,
2013-02-03 00:32:00,79.0,79.0,29.69,NE,45,0.0,1.0,99,0.00,,,0.00,,2013-02-02 14:32:00,
2013-02-03 00:42:00,79.0,79.0,29.69,NE,45,0.0,1.0,99,0.00,,,0.00,,2013-02-02 14:42:00,
2013-02-03 00:52:00,79.0,79.0,29.69,NE,45,0.0,1.0,99,0.00,,,0.00,,2013-02-02 14:52:00,
2013-02-03 01:02:00,78.0,78.0,29.68,North,0,0.0,0.0,99,0.00,,,0.00,,2013-02-02 15:02:00,
2013-02-03 01:11:00,78.0,78.0,29.68,North,0,0.0,0.0,99,0.00,,,0.00,,2013-02-02 15:11:00,
2013-02-03 01:21:00,78.0,78.0,29.68,North,0,0.0,0.0,99,0.00,,,0.00,,2013-02-02 15:21:00,
2013-02-03 01:32:00,79.0,79.0,29.68,NW,314,0.0,2.0,99,0.00,,,0.00,,2013-02-02 15:32:00,
2013-02-03 01:41:00,79.0,79.0,29.68,NW,314,0.0,2.0,99,0.00,,,0.00,,2013-02-02 15:41:00,
2013-02-03 01:51:00,79.0,79.0,29.68,NW,314,0.0,2.0,99,0.00,,,0.00,,2013-02-02 15:51:00,
2013-02-03 02:02:00,78.0,78.0,29.68,North,1,0.0,1.0,99,0.00,,,0.00,,2013-02-02 16:02:00,
2013-02-03 02:11:00,78.0,78.0,29.68,North,1,0.0,1.0,99,0.00,,,0.00,,2013-02-02 16:11:00,
2013-02-03 02:22:00,77.0,77.0,29.67,North,0,0.0,0.0,99,0.00,,,0.00,,2013-02-02 16:22:00,
2013-02-03 02:31:00,77.0,77.0,29.67,North,0,0.0,0.0,99,0.00,,,0.00,,2013-02-02 16:31:00,
2013-02-03 02:42:00,77.0,77.0,29.67,North,0,0.0,0.0,99,0.00,,,0.00,,2013-02-02 16:42:00,
2013-02-03 02:51:00,77.0,77.0,29.67,North,0,0.0,0.0,99,0.00,,,0.00,,2013-02-02 16:51:00,
2013-02-03 03:02:00,76.0,76.0,29.67,North,0,0.0,0.0,99,0.00,,,0.00,,2013-02-02 17:02:00,
2013-02-03 03:11:00,76.0,76.0,29.67,North,0,0.0,0.0,99,0.00,,,0.00,,2013-02-02 17:11:00,
2013-02-03 03:21:00,76.0,76.0,29.67,North,0,0.0,0.0,99,0.00,,,0.00,,2013-02-02 17:21:00,
2013-02-03 03:32:00,77.0,77.0,29.66,North,1,0.0,1.0,99,0.00,,,0.00,,2013-02-02 17:32:00,
2013-02-03 03:42:00,77.0,77.0,29.66,North,1,0.0,1.0,99,0.00,,,0.00,,2013-02-02 17:42:00,
2013-02-03 03:52:00,77.0,77.0,29.66,North,1,0.0,1.0,99,0.00,,,0.00,,2013-02-02 17:52:00,
2013-02-03 04:02:00,76.0,76.0,29.66,North,1,0.0,1.0,99,0.00,,,0.00,,2013-02-02 18:02:00,
2013-02-03 04:11:00,76.0,76.0,29.66,North,1,0.0,1.0,99,0.00,,,0.00,,2013-02-02 18:11:00,
2013-02-03 04:22:00,76.0,76.0,29.67,North,0,0.0,0.0,99,0.00,,,0.00,,2013-02-02 18:22:00,
2013-02-03 04:31:00,75.0,75.0,29.67,North,0,0.0,0.0,99,0.00,,,0.00,,2013-02-02 18:31:00,
2013-02-03 04:41:00,75.0,75.0,29.67,North,0,0.0,0.0,99,0.00,,,0.00,,2013-02-02 18:41:00,
2013-02-03 04:52:00,75.0,75.0,29.67,North,0,0.0,0.0,99,0.00,,,0.00,,2013-02-02 18:52:00,
2013-02-03 05:01:00,74.0,74.0,29.67,NNW,327,0.0,2.0,99,0.00,,,0.00,,2013-02-02 19:01:00,
2013-02-03 05:11:00,74.0,74.0,29.67,NNW,327,0.0,2.0,99,0.00,,,0.00,,2013-02-02 19:11:00,
2013-02-03 05:21:00,74.0,74.0,29.67,North,0,0.0,0.0,99,0.00,,,0.00,,2013-02-02 19:21:00,
2013-02-03 05:32:00,74.0,74.0,29.67,North,0,0.0,0.0,99,0.00,,,0.00,,2013-02-02 19:32:00,
2013-02-03 05:41:00,74.0,74.0,29.67,North,0,0.0,0.0,99,0.00,,,0.00,,2013-02-02 19:41:00,
2013-02-03 05:51:00,74.0,74.0,29.67,North,0,0.0,0.0,99,0.00,,,0.00,,2013-02-02 19:51:00,
2013-02-03 06:01:00,74.0,74.0,29.68,SE,135,0.0,1.0,99,0.00,,,0.00,,2013-02-02 20:01:00,
2013-02-03 06:11:00,74.0,74.0,29.68,SE,135,0.0,1.0,99,0.00,,,0.00,,2013-02-02 20:11:00,
2013-02-03 06:21:00,74.0,74.0,29.68,SE,135,0.0,1.0,99,0.00,,,0.00,,2013-02-02 20:21:00,
2013-02-03 06:32:00,76.0,76.0,29.70,North,5,0.0,1.0,99,0.00,,,0.00,,2013-02-02 20:32:00,
2013-02-03 06:42:00,76.0,76.0,29.70,North,5,0.0,1.0,99,0.00,,,0.00,,2013-02-02 20:42:00,
2013-02-03 06:52:00,76.0,76.0,29.70,North,5,0.0,1.0,99,0.00,,,0.00,,2013-02-02 20:52:00,
2013-02-03 07:01:00,76.0,76.0,29.71,East,90,0.0,1.0,99,0.00,,,0.00,,2013-02-02 21:01:00,
2013-02-03 07:11:00,76.0,76.0,29.71,East,90,0.0,1.0,99,0.00,,,0.00,,2013-02-02 21:11:00,
2013-02-03 07:21:00,76.0,76.0,29.71,East,90,0.0,1.0,99,0.00,,,0.00,,2013-02-02 21:21:00,
2013-02-03 07:32:00,79.0,79.0,29.71,NNW,340,0.0,2.0,99,0.00,,,0.00,,2013-02-02 21:32:00,
2013-02-03 07:42:00,79.0,79.0,29.71,NNW,340,0.0,2.0,99,0.00,,,0.00,,2013-02-02 21:42:00,
2013-02-03 07:52:00,80.0,80.0,29.72,North,1,0.0,2.0,99,0.00,,,0.00,,2013-02-02 21:52:00,
2013-02-03 08:02:00,82.0,82.0,29.72,North,1,0.0,2.0,99,0.00,,,0.00,,2013-02-02 22:02:00,
2013-02-03 08:11:00,82.0,82.0,29.72,North,1,0.0,2.0,99,0.00,,,0.00,,2013-02-02 22:11:00,
2013-02-03 08:21:00,85.0,83.0,29.72,NW,314,0.0,1.0,95,0.00,,,0.00,,2013-02-02 22:21:00,
2013-02-03 08:32:00,85.0,83.0,29.72,NW,314,0.0,1.0,95,0.00,,,0.00,,2013-02-02 22:32:00,
2013-02-03 08:41:00,85.0,83.0,29.72,NW,314,0.0,1.0,95,0.00,,,0.00,,2013-02-02 22:41:00,
2013-02-03 08:51:00,85.0,83.0,29.72,NW,314,0.0,1.0,95,0.00,,,0.00,,2013-02-02 22:51:00,
2013-02-03 09:01:00,94.0,77.0,29.74,NW,310,0.0,2.0,58,0.00,,,0.00,,2013-02-02 23:01:00,
2013-02-03 09:11:00,94.0,77.0,29.74,NW,310,0.0,2.0,58,0.00,,,0.00,,2013-02-02 23:11:00,
2013-02-03 09:21:00,94.0,77.0,29.74,NW,310,0.0,2.0,58,0.00,,,0.00,,2013-02-02 23:21:00,
2013-02-03 09:32:00,96.0,73.0,29.74,NW,313,0.0,2.0,48,0.00,,,0.00,,2013-02-02 23:32:00,
2013-02-03 09:41:00,96.0,73.0,29.74,NW,313,0.0,2.0,48,0.00,,,0.00,,2013-02-02 23:41:00,
2013-02-03 09:52:00,96.0,71.0,29.75,NW,314,0.0,2.0,45,0.00,,,0.00,,2013-02-02 23:52:00,
2013-02-03 10:01:00,98.0,72.0,29.74,NW,314,0.0,2.0,43,0.00,,,0.00,,2013-02-03 00:01:00,
2013-02-03 10:11:00,98.0,72.0,29.74,NW,314,0.0,2.0,43,0.00,,,0.00,,2013-02-03 00:11:00,
2013-02-03 10:21:00,99.0,70.0,29.74,NW,312,0.0,2.0,40,0.00,,,0.00,,2013-02-03 00:21:00,
2013-02-03 10:31:00,99.0,70.0,29.74,NW,312,0.0,2.0,40,0.00,,,0.00,,2013-02-03 00:31:00,
2013-02-03 10:41:00,99.0,70.0,29.74,NW,312,0.0,2.0,40,0.00,,,0.00,,2013-02-03 00:41:00,
2013-02-03 10:51:00,99.0,70.0,29.74,NW,312,0.0,2.0,40,0.00,,,0.00,,2013-02-03 00:51:00,
2013-02-03 11:02:00,101.0,74.0,29.73,South,179,1.0,6.0,43,0.00,,,0.00,,2013-02-03 01:02:00,
2013-02-03 11:11:00,101.0,74.0,29.73,South,179,1.0,6.0,43,0.00,,,0.00,,2013-02-03 01:11:00,
2013-02-03 11:21:00,101.0,78.0,29.73,SSW,213,1.0,6.0,49,0.00,,,0.00,,2013-02-03 01:21:00,
2013-02-03 11:32:00,101.0,81.0,29.73,SSE,166,3.0,7.0,54,0.00,,,0.00,,2013-02-03 01:32:00,
2013-02-03 11:41:00,101.0,81.0,29.73,SSE,166,3.0,7.0,54,0.00,,,0.00,,2013-02-03 01:41:00,
2013-02-03 11:51:00,101.0,81.0,29.73,SSE,166,3.0,7.0,54,0.00,,,0.00,,2013-02-03 01:51:00,
2013-02-03 12:01:00,101.0,86.0,29.71,SSW,205,2.0,7.0,62,0.00,,,0.00,,2013-02-03 02:01:00,
2013-02-03 12:11:00,101.0,86.0,29.71,SSW,205,2.0,7.0,62,0.00,,,0.00,,2013-02-03 02:11:00,
2013-02-03 12:21:00,101.0,86.0,29.71,SSW,205,2.0,7.0,62,0.00,,,0.00,,2013-02-03 02:21:00,
2013-02-03 12:31:00,101.0,81.0,29.71,SW,214,4.0,8.0,54,0.00,,,0.00,,2013-02-03 02:31:00,
2013-02-03 12:41:00,101.0,81.0,29.71,SW,214,4.0,8.0,54,0.00,,,0.00,,2013-02-03 02:41:00,
2013-02-03 12:52:00,100.0,83.0,29.70,South,171,3.0,10.0,59,0.00,,,0.00,,2013-02-03 02:52:00,
2013-02-03 13:01:00,101.0,84.0,29.70,SSW,199,2.0,10.0,59,0.00,,,0.00,,2013-02-03 03:01:00,
2013-02-03 13:11:00,101.0,84.0,29.70,SSW,199,2.0,10.0,59,0.00,,,0.00,,2013-02-03 03:11:00,
2013-02-03 13:21:00,101.0,84.0,29.70,SSW,199,2.0,10.0,59,0.00,,,0.00,,2013-02-03 03:21:00,
2013-02-03 13:31:00,103.0,76.0,29.68,SSW,201,4.0,8.0,43,0.00,,,0.00,,2013-02-03 03:31:00,
2013-02-03 13:42:00,103.0,76.0,29.68,SSW,201,4.0,8.0,43,0.00,,,0.00,,2013-02-03 03:42:00,
2013-02-03 13:52:00,103.0,76.0,29.68,SSW,201,4.0,8.0,43,0.00,,,0.00,,2013-02-03 03:52:00,
2013-02-03 14:01:00,103.0,81.0,29.67,SW,236,0.0,8.0,50,0.00,,,0.00,,2013-02-03 04:01:00,
2013-02-03 14:11:00,103.0,81.0,29.67,SW,236,0.0,8.0,50,0.00,,,0.00,,2013-02-03 04:11:00,
2013-02-03 14:21:00,103.0,81.0,29.67,SW,236,0.0,8.0,50,0.00,,,0.00,,2013-02-03 04:21:00,
2013-02-03 14:31:00,101.0,83.0,29.65,South,171,2.0,12.0,57,0.00,,,0.00,,2013-02-03 04:31:00,
2013-02-03 14:42:00,101.0,83.0,29.65,South,171,2.0,12.0,57,0.00,,,0.00,,2013-02-03 04:42:00,
2013-02-03 14:52:00,102.0,82.0,29.65,SSW,192,3.0,10.0,53,0.00,,,0.00,,2013-02-03 04:52:00,
2013-02-03 15:03:00,100.0,80.0,29.65,SSE,168,4.0,9.0,54,0.00,,,0.00,,2013-02-03 05:03:00,
2013-02-03 15:11:00,100.0,80.0,29.65,SSE,168,4.0,9.0,54,0.00,,,0.00,,2013-02-03 05:11:00,
2013-02-03 15:22:00,103.0,79.0,29.65,SSE,152,2.0,8.0,47,0.00,,,0.00,,2013-02-03 05:22:00,
2013-02-03 15:31:00,104.0,82.0,29.64,South,183,3.0,11.0,50,0.00,,,0.00,,2013-02-03 05:31:00,
2013-02-03 15:41:00,104.0,82.0,29.64,South,183,3.0,11.0,50,0.00,,,0.00,,2013-02-03 05:41:00,
2013-02-03 15:52:00,103.0,83.0,29.64,SW,235,2.0,9.0,54,0.00,,,0.00,,2013-02-03 05:52:00,
2013-02-03 16:02:00,101.0,84.0,29.64,SSW,212,2.0,11.0,59,0.00,,,0.00,,2013-02-03 06:02:00,
2013-02-03 16:11:00,101.0,84.0,29.64,SSW,212,2.0,11.0,59,0.00,,,0.00,,2013-02-03 06:11:00,
2013-02-03 16:21:00,101.0,85.0,29.64,SW,236,5.0,11.0,60,0.00,,,0.00,,2013-02-03 06:21:00,
2013-02-03 16:31:00,99.0,85.0,29.65,SW,216,3.0,10.0,65,0.00,,,0.00,,2013-02-03 06:31:00,
2013-02-03 16:41:00,99.0,85.0,29.65,SW,216,3.0,10.0,65,0.00,,,0.00,,2013-02-03 06:41:00,
2013-02-03 16:52:00,99.0,85.0,29.65,SW,216,3.0,10.0,65,0.00,,,0.00,,2013-02-03 06:52:00,
2013-02-03 17:01:00,99.0,86.0,29.65,SW,218,4.0,11.0,66,0.00,,,0.00,,2013-02-03 07:01:00,
2013-02-03 17:11:00,99.0,86.0,29.65,SW,218,4.0,11.0,66,0.00,,,0.00,,2013-02-03 07:11:00,
2013-02-03 17:21:00,98.0,86.0,29.66,SSW,207,2.0,11.0,69,0.00,,,0.00,,2013-02-03 07:21:00,
2013-02-03 17:31:00,98.0,86.0,29.66,SSW,207,2.0,11.0,69,0.00,,,0.00,,2013-02-03 07:31:00,
2013-02-03 17:41:00,98.0,86.0,29.66,SSW,207,2.0,11.0,69,0.00,,,0.00,,2013-02-03 07:41:00,
2013-02-03 17:52:00,98.0,86.0,29.66,SSW,207,2.0,11.0,69,0.00,,,0.00,,2013-02-03 07:52:00,
2013-02-03 18:01:00,94.0,86.0,29.67,SW,215,3.0,7.0,79,0.00,,,0.00,,2013-02-03 08:01:00,
2013-02-03 18:11:00,94.0,86.0,29.67,SW,215,3.0,7.0,79,0.00,,,0.00,,2013-02-03 08:11:00,
2013-02-03 18:22:00,90.0,86.0,29.68,SW,229,0.0,7.0,87,0.00,,,0.00,,2013-02-03 08:22:00,
2013-02-03 18:32:00,90.0,86.0,29.68,SW,229,0.0,7.0,87,0.00,,,0.00,,2013-02-03 08:32:00,
2013-02-03 18:41:00,90.0,86.0,29.68,SW,229,0.0,7.0,87,0.00,,,0.00,,2013-02-03 08:41:00,
2013-02-03 18:51:00,90.0,86.0,29.68,SW,229,0.0,7.0,87,0.00,,,0.00,,2013-02-03 08:51:00,
2013-02-03 19:02:00,88.0,87.0,29.70,South,183,0.0,4.0,96,0.00,,,0.00,,2013-02-03 09:02:00,
2013-02-03 19:11:00,88.0,87.0,29.70,South,183,0.0,4.0,96,0.00,,,0.00,,2013-02-03 09:11:00,
2013-02-03 19:21:00,88.0,87.0,29.70,South,183,0.0,4.0,96,0.00,,,0.00,,2013-02-03 09:21:00,
2013-02-03 19:31:00,87.0,87.0,29.72,SSW,193,0.0,3.0,99,0.00,,,0.00,,2013-02-03 09:31:00,
2013-02-03 19:41:00,87.0,87.0,29.72,SSW,193,0.0,3.0,99,0.00,,,0.00,,2013-02-03 09:41:00,
2013-02-03 19:52:00,87.0,87.0,29.72,SSW,193,0.0,3.0,99,0.00,,,0.00,,2013-02-03 09:52:00,
2013-02-03 20:01:00,87.0,87.0,29.72,SSW,193,0.0,3.0,99,0.00,,,0.00,,2013-02-03 10:01:00,
2013-02-03 20:11:00,87.0,87.0,29.72,SSW,193,0.0,3.0,99,0.00,,,0.00,,2013-02-03 10:11:00,
2013-02-03 20:32:00,86.0,86.0,29.74,North,5,0.0,2.0,99,0.00,,,0.00,,2013-02-03 10:32:00,
2013-02-03 20:42:00,86.0,86.0,29.74,North,5,0.0,2.0,99,0.00,,,0.00,,2013-02-03 10:42:00,
2013-02-03 20:52:00,86.0,86.0,29.74,North,5,0.0,2.0,99,0.00,,,0.00,,2013-02-03 10:52:00,
2013-02-03 21:02:00,84.0,84.0,29.75,North,0,0.0,0.0,99,0.00,,,0.00,,2013-02-03 11:02:00,
2013-02-03 21:11:00,84.0,84.0,29.75,North,0,0.0,0.0,99,0.00,,,0.00,,2013-02-03 11:11:00,
2013-02-03 21:22:00,84.0,84.0,29.75,North,0,0.0,0.0,99,0.00,,,0.00,,2013-02-03 11:22:00,
2013-02-03 21:31:00,83.0,83.0,29.76,NE,43,0.0,2.0,99,0.00,,,0.00,,2013-02-03 11:31:00,
2013-02-03 21:41:00,83.0,83.0,29.76,NE,43,0.0,2.0,99,0.00,,,0.00,,2013-02-03 11:41:00,
2013-02-03 21:52:00,82.0,82.0,29.77,North,1,0.0,2.0,99,0.00,,,0.00,,2013-02-03 11:52:00,
2013-02-03 22:02:00,82.0,82.0,29.77,North,0,0.0,0.0,99,0.00,,,0.00,,2013-02-03 12:02:00,
2013-02-03 22:11:00,82.0,82.0,29.77,North,0,0.0,0.0,99,0.00,,,0.00,,2013-02-03 12:11:00,
2013-02-03 22:21:00,82.0,82.0,29.77,North,0,0.0,0.0,99,0.00,,,0.00,,2013-02-03 12:21:00,
2013-02-03 22:32:00,81.0,81.0,29.79,North,0,0.0,0.0,99,0.00,,,0.00,,2013-02-03 12:32:00,
2013-02-03 22:42:00,81.0,81.0,29.79,North,0,0.0,0.0,99,0.00,,,0.00,,2013-02-03 12:42:00,
2013-02-03 22:53:00,81.0,81.0,29.79,North,0,0.0,0.0,99,0.00,,,0.00,,2013-02-03 12:53:00,
2013-02-03 23:03:00,81.0,81.0,29.79,North,0,0.0,0.0,99,0.00,,,0.00,,2013-02-03 13:03:00,
2013-02-03 23:11:00,81.0,81.0,29.79,North,0,0.0,0.0,99,0.00,,,0.00,,2013-02-03 13:11:00,
2013-02-03 23:32:00,79.0,79.0,29.79,North,0,0.0,0.0,99,0.00,,,0.00,,2013-02-03 13:32:00,
2013-02-03 23:42:00,79.0,79.0,29.79,North,0,0.0,0.0,99,0.00,,,0.00,,2013-02-03 13:42:00,
2013-02-03 23:52:00,79.0,79.0,29.79,North,0,0.0,0.0,99,0.00,,,0.00,,2013-02-03 13:52:00,